createdAt,value
2018-11-13T00:00:02.187Z,88.24
2018-11-13T00:01:01.985Z,88.91
2018-11-13T00:02:02.097Z,88.03
2018-11-13T00:03:02.822Z,88.84
2018-11-13T00:04:02.214Z,87.63
2018-11-13T00:05:01.915Z,87.63
2018-11-13T00:06:02.228Z,88.04
2018-11-13T00:07:01.955Z,87.48
2018-11-13T00:08:01.934Z,88.54
2018-11-13T00:09:02.228Z,88.83
2018-11-13T00:10:01.956Z,88.99
2018-11-13T00:11:02.024Z,88.75
2018-11-13T00:12:02.116Z,88.85
2018-11-13T00:13:01.994Z,87.77
2018-11-13T00:14:01.862Z,87.55
2018-11-13T00:15:02.183Z,86.88
2018-11-13T00:16:01.957Z,86.81
2018-11-13T00:17:02.098Z,86.85
2018-11-13T00:18:02.042Z,87.44
2018-11-13T00:19:01.950Z,88.7
2018-11-13T00:20:02.202Z,88.61
2018-11-13T00:21:02.223Z,87.58
2018-11-13T00:22:01.836Z,87.89
2018-11-13T00:23:02.010Z,87.14
2018-11-13T00:24:01.922Z,87.49
2018-11-13T00:25:01.813Z,86.94
2018-11-13T00:26:02.052Z,86.83
2018-11-13T00:27:01.900Z,87.5
2018-11-13T00:28:01.900Z,87.83
2018-11-13T00:29:02.075Z,88.54
2018-11-13T00:30:01.818Z,88.67
2018-11-13T00:31:01.951Z,88.59
2018-11-13T00:32:01.998Z,88.39
2018-11-13T00:33:01.823Z,88.46
2018-11-13T00:34:01.883Z,88.93
2018-11-13T00:35:01.887Z,88.69
2018-11-13T00:36:01.924Z,88.59
2018-11-13T00:37:01.968Z,88.55
2018-11-13T00:38:01.906Z,87.71
2018-11-13T00:39:01.916Z,87.54
2018-11-13T00:40:01.829Z,87.33
2018-11-13T00:41:01.825Z,88.63
2018-11-13T00:42:01.798Z,89.16
2018-11-13T00:43:01.969Z,89.77
2018-11-13T00:44:01.815Z,90.15
2018-11-13T00:45:01.999Z,90.75
2018-11-13T00:46:01.838Z,91.42
2018-11-13T00:47:01.800Z,91.76
2018-11-13T00:48:01.834Z,90.28
2018-11-13T00:49:02.180Z,90.26
2018-11-13T00:50:02.109Z,90.42
2018-11-13T00:51:02.021Z,90.21
2018-11-13T00:52:02.129Z,89.77
2018-11-13T00:53:02.337Z,89.33
2018-11-13T00:54:01.911Z,89.05
2018-11-13T00:55:02.463Z,89.25
2018-11-13T00:56:01.947Z,89.32
2018-11-13T00:57:02.076Z,89.09
2018-11-13T00:58:01.836Z,89.07
2018-11-13T00:59:01.864Z,88.98
2018-11-13T01:00:02.182Z,88.43
2018-11-13T01:01:02.179Z,89.24
2018-11-13T01:02:01.920Z,88.87
2018-11-13T01:03:01.919Z,89.11
2018-11-13T01:04:01.916Z,88.55
2018-11-13T01:05:02.246Z,89.47
2018-11-13T01:06:01.907Z,89.55
2018-11-13T01:07:01.805Z,89.72
2018-11-13T01:08:02.038Z,89
2018-11-13T01:09:01.791Z,88.81
2018-11-13T01:10:01.918Z,89.01
2018-11-13T01:11:01.783Z,88.19
2018-11-13T01:12:02.059Z,88.89
2018-11-13T01:13:01.909Z,88.96
2018-11-13T01:14:01.846Z,88.6
2018-11-13T01:15:02.020Z,90.03
2018-11-13T01:16:01.781Z,90.42
2018-11-13T01:17:02.102Z,89.92
2018-11-13T01:18:02.406Z,89.51
2018-11-13T01:19:02.128Z,89.11
2018-11-13T01:20:01.945Z,89.74
2018-11-13T01:21:02.124Z,89.52
2018-11-13T01:22:01.833Z,88.89
2018-11-13T01:23:02.035Z,88.6
2018-11-13T01:24:02.239Z,88.36
2018-11-13T01:25:02.048Z,88.21
2018-11-13T01:26:02.206Z,88.27
2018-11-13T01:27:02.242Z,88.55
2018-11-13T01:28:01.779Z,88.15
2018-11-13T01:29:01.996Z,88.42
2018-11-13T01:30:02.586Z,88.21
2018-11-13T01:31:01.876Z,89.12
2018-11-13T01:32:01.830Z,89.44
2018-11-13T01:33:01.905Z,89.86
2018-11-13T01:34:02.270Z,90.06
2018-11-13T01:35:02.559Z,89.71
2018-11-13T01:36:01.799Z,88.98
2018-11-13T01:37:01.771Z,88.66
2018-11-13T01:38:02.135Z,88.85
2018-11-13T01:39:01.856Z,88.6
2018-11-13T01:40:01.768Z,89.15
2018-11-13T01:41:02.088Z,89.24
2018-11-13T01:42:01.710Z,88.97
2018-11-13T01:43:01.967Z,89.12
2018-11-13T01:44:01.915Z,89.64
2018-11-13T01:45:01.720Z,89.99
2018-11-13T01:46:02.097Z,89.02
2018-11-13T01:47:01.915Z,89.18
2018-11-13T01:48:02.037Z,90.31
2018-11-13T01:49:01.772Z,89.34
2018-11-13T01:50:01.707Z,89.04
2018-11-13T01:51:02.026Z,89.73
2018-11-13T01:52:01.865Z,89.21
2018-11-13T01:53:01.940Z,89.11
2018-11-13T01:54:01.783Z,89.59
2018-11-13T01:55:02.241Z,90.1
2018-11-13T01:56:01.689Z,90.09
2018-11-13T01:57:01.804Z,91.12
2018-11-13T01:58:01.740Z,91.71
2018-11-13T01:59:01.705Z,91.03
2018-11-13T02:00:01.675Z,90.63
2018-11-13T02:01:01.720Z,90.13
2018-11-13T02:02:01.707Z,89.76
2018-11-13T02:03:01.710Z,90.89
2018-11-13T02:04:02.010Z,90.93
2018-11-13T02:05:01.670Z,91.25
2018-11-13T02:06:01.720Z,90.66
2018-11-13T02:07:01.746Z,90.44
2018-11-13T02:08:01.691Z,90.54
2018-11-13T02:09:01.676Z,89.65
2018-11-13T02:10:01.684Z,90.14
2018-11-13T02:11:01.722Z,90.39
2018-11-13T02:12:01.693Z,90.64
2018-11-13T02:13:01.714Z,90.66
2018-11-13T02:14:01.676Z,90.78
2018-11-13T02:15:01.685Z,90.63
2018-11-13T02:16:01.683Z,90.58
2018-11-13T02:17:01.682Z,90.57
2018-11-13T02:18:02.130Z,90.54
2018-11-13T02:19:01.714Z,90.39
2018-11-13T02:20:02.028Z,90.41
2018-11-13T02:21:01.917Z,90.83
2018-11-13T02:22:01.657Z,90.58
2018-11-13T02:23:01.937Z,90.9
2018-11-13T02:24:01.740Z,90.59
2018-11-13T02:25:01.713Z,91.18
2018-11-13T02:26:01.898Z,91.41
2018-11-13T02:27:01.886Z,90.77
2018-11-13T02:28:01.967Z,90.22
2018-11-13T02:29:02.179Z,90.07
2018-11-13T02:30:01.654Z,89.86
2018-11-13T02:31:01.647Z,89.87
2018-11-13T02:32:01.697Z,89.72
2018-11-13T02:33:01.902Z,90.28
2018-11-13T02:34:02.015Z,90.88
2018-11-13T02:35:02.055Z,91.73
2018-11-13T02:36:01.749Z,91.36
2018-11-13T02:37:01.693Z,90.95
2018-11-13T02:38:01.681Z,91.21
2018-11-13T02:39:01.646Z,90.25
2018-11-13T02:40:02.184Z,90.55
2018-11-13T02:41:01.795Z,90.77
2018-11-13T02:42:01.700Z,90.44
2018-11-13T02:43:02.074Z,90.14
2018-11-13T02:44:01.737Z,89.89
2018-11-13T02:45:01.985Z,89.71
2018-11-13T02:46:01.694Z,89.74
2018-11-13T02:47:01.724Z,89.92
2018-11-13T02:48:01.833Z,89.82
2018-11-13T02:49:01.754Z,90.19
2018-11-13T02:50:01.688Z,90.17
2018-11-13T02:51:01.642Z,90.9
2018-11-13T02:52:02.014Z,90.79
2018-11-13T02:53:01.646Z,90.66
2018-11-13T02:54:01.648Z,90.64
2018-11-13T02:55:01.958Z,91.01
2018-11-13T02:56:01.658Z,90.88
2018-11-13T02:57:01.634Z,90.63
2018-11-13T02:58:01.977Z,90.82
2018-11-13T02:59:01.710Z,90.96
2018-11-13T03:00:01.753Z,90.69
2018-11-13T03:01:01.597Z,90.95
2018-11-13T03:02:01.702Z,90.88
2018-11-13T03:03:01.628Z,90.83
2018-11-13T03:04:01.653Z,91.94
2018-11-13T03:05:01.963Z,91.83
2018-11-13T03:06:02.137Z,92.21
2018-11-13T03:07:01.632Z,92.62
2018-11-13T03:08:01.846Z,92.83
2018-11-13T03:09:01.877Z,93.17
2018-11-13T03:10:01.723Z,93.29
2018-11-13T03:11:01.732Z,92.7
2018-11-13T03:12:01.980Z,92.47
2018-11-13T03:13:01.650Z,91.78
2018-11-13T03:14:01.609Z,91.38
2018-11-13T03:15:01.735Z,91.14
2018-11-13T03:16:01.618Z,91.12
2018-11-13T03:17:01.748Z,91.25
2018-11-13T03:18:01.788Z,90.83
2018-11-13T03:19:01.593Z,90.66
2018-11-13T03:20:01.626Z,90.73
2018-11-13T03:21:01.848Z,90.62
2018-11-13T03:22:02.071Z,91.43
2018-11-13T03:23:01.589Z,91.59
2018-11-13T03:24:01.590Z,91.59
2018-11-13T03:25:01.735Z,91.47
2018-11-13T03:26:01.579Z,91.29
2018-11-13T03:27:01.744Z,91
2018-11-13T03:28:01.732Z,90.88
2018-11-13T03:29:01.612Z,91.53
2018-11-13T03:30:01.570Z,92.39
2018-11-13T03:31:01.618Z,92.16
2018-11-13T03:32:01.575Z,92.18
2018-11-13T03:33:01.580Z,92.17
2018-11-13T03:34:01.643Z,92.34
2018-11-13T03:35:01.573Z,92.27
2018-11-13T03:36:01.585Z,92.03
2018-11-13T03:37:01.550Z,92.4
2018-11-13T03:38:01.624Z,92.12
2018-11-13T03:39:01.564Z,91.92
2018-11-13T03:40:01.548Z,92.79
2018-11-13T03:41:01.570Z,92.69
2018-11-13T03:42:01.594Z,93.29
2018-11-13T03:43:01.559Z,93.08
2018-11-13T03:44:01.584Z,92.67
2018-11-13T03:45:01.674Z,92.1
2018-11-13T03:46:01.573Z,92.7
2018-11-13T03:47:01.610Z,92.04
2018-11-13T03:48:01.570Z,92.89
2018-11-13T03:49:01.925Z,92.1
2018-11-13T03:50:01.682Z,92.33
2018-11-13T03:51:01.847Z,92.83
2018-11-13T03:52:02.257Z,92.51
2018-11-13T03:53:02.386Z,91.9
2018-11-13T03:54:01.678Z,91.64
2018-11-13T03:55:01.699Z,91.95
2018-11-13T03:56:01.700Z,91.76
2018-11-13T03:57:01.554Z,92.66
2018-11-13T03:58:01.557Z,92.18
2018-11-13T03:59:01.636Z,92.11
2018-11-13T04:00:01.950Z,92.01
2018-11-13T04:01:01.709Z,92.73
2018-11-13T04:02:01.541Z,92.07
2018-11-13T04:03:01.616Z,92.08
2018-11-13T04:04:01.579Z,92.4
2018-11-13T04:05:01.607Z,93.01
2018-11-13T04:06:01.613Z,93.1
2018-11-13T04:07:01.668Z,93.84
2018-11-13T04:08:02.377Z,93
2018-11-13T04:09:01.643Z,93.81
2018-11-13T04:10:01.620Z,92.68
2018-11-13T04:11:01.681Z,93.12
2018-11-13T04:12:01.538Z,93.06
2018-11-13T04:13:01.564Z,92.86
2018-11-13T04:14:01.526Z,92.33
2018-11-13T04:15:01.522Z,92.57
2018-11-13T04:16:01.536Z,93.34
2018-11-13T04:17:01.553Z,93.02
2018-11-13T04:18:01.659Z,93.49
2018-11-13T04:19:01.662Z,93.8
2018-11-13T04:20:01.547Z,93.41
2018-11-13T04:21:01.576Z,93.23
2018-11-13T04:22:01.758Z,93.09
2018-11-13T04:23:01.610Z,92.93
2018-11-13T04:24:01.564Z,93.71
2018-11-13T04:25:02.363Z,93.79
2018-11-13T04:26:01.790Z,93.26
2018-11-13T04:27:01.741Z,93.64
2018-11-13T04:28:01.574Z,93.1
2018-11-13T04:29:01.522Z,93.45
2018-11-13T04:30:01.577Z,93.69
2018-11-13T04:31:01.548Z,93.15
2018-11-13T04:32:01.524Z,93.89
2018-11-13T04:33:01.563Z,93.6
2018-11-13T04:34:01.844Z,93.8
2018-11-13T04:35:01.576Z,93.43
2018-11-13T04:36:01.610Z,93.56
2018-11-13T04:37:01.557Z,94.05
2018-11-13T04:38:01.559Z,93.49
2018-11-13T04:39:01.537Z,93.46
2018-11-13T04:40:01.910Z,93.56
2018-11-13T04:41:01.598Z,93.85
2018-11-13T04:42:01.676Z,93.85
2018-11-13T04:43:01.571Z,94.05
2018-11-13T04:44:01.579Z,93.55
2018-11-13T04:45:01.588Z,93.95
2018-11-13T04:46:01.555Z,93.38
2018-11-13T04:47:01.652Z,93.87
2018-11-13T04:48:01.581Z,93.45
2018-11-13T04:49:01.575Z,93.33
2018-11-13T04:50:01.650Z,93.85
2018-11-13T04:51:01.519Z,93.14
2018-11-13T04:52:01.567Z,93.35
2018-11-13T04:53:01.666Z,93.19
2018-11-13T04:54:01.679Z,93.73
2018-11-13T04:55:01.713Z,94
2018-11-13T04:56:01.589Z,93.48
2018-11-13T04:57:01.565Z,93.86
2018-11-13T04:58:01.606Z,93.49
2018-11-13T04:59:01.607Z,93.8
2018-11-13T05:00:01.825Z,93.41
2018-11-13T05:01:01.474Z,93.75
2018-11-13T05:02:01.482Z,93.53
2018-11-13T05:03:01.596Z,93.62
2018-11-13T05:04:01.441Z,93.65
2018-11-13T05:05:01.860Z,93.54
2018-11-13T05:06:01.463Z,93.9
2018-11-13T05:07:01.459Z,93.9
2018-11-13T05:08:01.471Z,94.1
2018-11-13T05:09:01.428Z,94.01
2018-11-13T05:10:01.765Z,94.02
2018-11-13T05:11:01.431Z,93.93
2018-11-13T05:12:01.440Z,93.44
2018-11-13T05:13:01.480Z,93.49
2018-11-13T05:14:01.487Z,93.76
2018-11-13T05:15:01.470Z,93.89
2018-11-13T05:16:01.456Z,94.09
2018-11-13T05:17:01.448Z,94.06
2018-11-13T05:18:01.437Z,93.95
2018-11-13T05:19:01.463Z,94.14
2018-11-13T05:20:01.505Z,93.96
2018-11-13T05:21:01.453Z,93.97
2018-11-13T05:22:01.481Z,93.89
2018-11-13T05:23:01.534Z,94.51
2018-11-13T05:24:01.427Z,93.91
2018-11-13T05:25:01.522Z,94.14
2018-11-13T05:26:02.244Z,94
2018-11-13T05:27:01.454Z,93.58
2018-11-13T05:28:01.525Z,94.01
2018-11-13T05:29:01.728Z,94.03
2018-11-13T05:30:01.623Z,94.16
2018-11-13T05:31:01.500Z,94.29
2018-11-13T05:32:01.528Z,93.84
2018-11-13T05:33:01.603Z,94.7
2018-11-13T05:34:01.473Z,94.59
2018-11-13T05:35:01.620Z,94.87
2018-11-13T05:36:01.553Z,94.55
2018-11-13T05:37:01.446Z,94.87
2018-11-13T05:38:01.587Z,95.12
2018-11-13T05:39:01.474Z,94.75
2018-11-13T05:40:01.603Z,94.88
2018-11-13T05:41:01.553Z,94.64
2018-11-13T05:42:01.456Z,94.68
2018-11-13T05:43:01.412Z,94.75
2018-11-13T05:44:01.495Z,94.83
2018-11-13T05:45:01.610Z,95.34
2018-11-13T05:46:01.385Z,95.32
2018-11-13T05:47:01.516Z,95.29
2018-11-13T05:48:01.479Z,94.98
2018-11-13T05:49:01.667Z,94.82
2018-11-13T05:50:01.541Z,94.48
2018-11-13T05:51:01.430Z,94.95
2018-11-13T05:52:01.430Z,94.72
2018-11-13T05:53:01.433Z,94.84
2018-11-13T05:54:01.360Z,95.1
2018-11-13T05:55:01.408Z,94.97
2018-11-13T05:56:01.433Z,95.03
2018-11-13T05:57:01.626Z,95.24
2018-11-13T05:58:01.464Z,95.01
2018-11-13T05:59:01.535Z,95.07
2018-11-13T06:00:01.399Z,95.18
2018-11-13T06:01:01.462Z,95.35
2018-11-13T06:02:01.689Z,95.36
2018-11-13T06:03:01.422Z,95.16
2018-11-13T06:04:01.348Z,95.18
2018-11-13T06:05:01.573Z,95.12
2018-11-13T06:06:01.425Z,94.92
2018-11-13T06:07:01.426Z,95.06
2018-11-13T06:08:01.695Z,95.4
2018-11-13T06:09:01.448Z,95.37
2018-11-13T06:10:01.373Z,95.11
2018-11-13T06:11:01.840Z,95.07
2018-11-13T06:12:01.441Z,94.95
2018-11-13T06:13:01.410Z,95.32
2018-11-13T06:14:01.540Z,95.16
2018-11-13T06:15:01.411Z,95.01
2018-11-13T06:16:01.402Z,95.1
2018-11-13T06:17:01.675Z,95.21
2018-11-13T06:18:01.561Z,95.24
2018-11-13T06:19:01.411Z,95.01
2018-11-13T06:20:01.593Z,95.48
2018-11-13T06:21:01.377Z,95.15
2018-11-13T06:22:01.614Z,95.48
2018-11-13T06:23:01.554Z,95.11
2018-11-13T06:24:01.461Z,95.19
2018-11-13T06:25:01.498Z,94.83
2018-11-13T06:26:01.626Z,95.17
2018-11-13T06:27:01.345Z,94.82
2018-11-13T06:28:01.638Z,94.95
2018-11-13T06:29:01.412Z,95.2
2018-11-13T06:30:01.393Z,94.97
2018-11-13T06:31:01.525Z,94.85
2018-11-13T06:32:01.414Z,94.86
2018-11-13T06:33:01.470Z,95.37
2018-11-13T06:34:01.336Z,94.74
2018-11-13T06:35:01.346Z,94.65
2018-11-13T06:36:01.951Z,94.65
2018-11-13T06:37:01.346Z,94.6
2018-11-13T06:38:01.604Z,94.34
2018-11-13T06:39:01.622Z,94.93
2018-11-13T06:40:01.340Z,94.56
2018-11-13T06:41:01.316Z,94.42
2018-11-13T06:42:01.327Z,94.19
2018-11-13T06:43:01.759Z,94.31
2018-11-13T06:44:01.307Z,94.19
2018-11-13T06:45:01.429Z,94.29
2018-11-13T06:46:01.493Z,94.1
2018-11-13T06:47:01.331Z,94.08
2018-11-13T06:48:01.349Z,94.19
2018-11-13T06:49:01.364Z,94.07
2018-11-13T06:50:01.297Z,94.16
2018-11-13T06:51:01.325Z,94.06
2018-11-13T06:52:01.605Z,94.31
2018-11-13T06:53:01.303Z,93.83
2018-11-13T06:54:01.310Z,93.88
2018-11-13T06:55:01.308Z,94.04
2018-11-13T06:56:01.296Z,93.83
2018-11-13T06:57:01.540Z,94.12
2018-11-13T06:58:01.290Z,93.85
2018-11-13T06:59:01.295Z,93.97
2018-11-13T07:00:01.492Z,93.83
2018-11-13T07:01:01.571Z,93.83
2018-11-13T07:02:01.288Z,93.66
2018-11-13T07:03:01.368Z,93.78
2018-11-13T07:04:01.298Z,93.76
2018-11-13T07:05:01.373Z,93.6
2018-11-13T07:06:01.313Z,93.58
2018-11-13T07:07:01.914Z,93.93
2018-11-13T07:08:01.373Z,93.99
2018-11-13T07:09:01.285Z,94.13
2018-11-13T07:10:01.301Z,94
2018-11-13T07:11:01.331Z,93.9
2018-11-13T07:12:01.446Z,93.9
2018-11-13T07:13:01.370Z,93.95
2018-11-13T07:14:01.428Z,93.97
2018-11-13T07:15:01.439Z,93.99
2018-11-13T07:16:01.433Z,93.94
2018-11-13T07:17:01.278Z,93.88
2018-11-13T07:18:01.710Z,94.14
2018-11-13T07:19:01.266Z,93.88
2018-11-13T07:20:01.269Z,94.01
2018-11-13T07:21:01.351Z,93.98
2018-11-13T07:22:01.329Z,93.86
2018-11-13T07:23:01.328Z,93.84
2018-11-13T07:24:01.407Z,94.35
2018-11-13T07:25:01.560Z,93.87
2018-11-13T07:26:01.306Z,93.95
2018-11-13T07:27:01.357Z,93.82
2018-11-13T07:28:02.202Z,94.08
2018-11-13T07:29:01.330Z,94.03
2018-11-13T07:30:01.474Z,93.88
2018-11-13T07:31:01.482Z,93.71
2018-11-13T07:32:01.474Z,94.01
2018-11-13T07:33:01.452Z,94.23
2018-11-13T07:34:01.409Z,93.66
2018-11-13T07:35:01.597Z,93.66
2018-11-13T07:36:01.502Z,93.54
2018-11-13T07:37:01.286Z,93.22
2018-11-13T07:38:01.409Z,93.1
2018-11-13T07:39:01.335Z,93.02
2018-11-13T07:40:01.285Z,92.92
2018-11-13T07:41:01.443Z,93.04
2018-11-13T07:42:01.376Z,93.21
2018-11-13T07:43:01.256Z,93.08
2018-11-13T07:44:01.702Z,92.99
2018-11-13T07:45:01.553Z,93.12
2018-11-13T07:46:01.292Z,92.86
2018-11-13T07:47:01.379Z,92.56
2018-11-13T07:48:01.413Z,92.64
2018-11-13T07:49:01.283Z,92.68
2018-11-13T07:50:01.405Z,92.5
2018-11-13T07:51:01.298Z,92.09
2018-11-13T07:52:01.278Z,92.22
2018-11-13T07:53:01.397Z,92.14
2018-11-13T07:54:01.358Z,92.16
2018-11-13T07:55:01.453Z,91.85
2018-11-13T07:56:01.317Z,91.58
2018-11-13T07:57:01.399Z,91.65
2018-11-13T07:58:01.275Z,91.81
2018-11-13T07:59:01.247Z,91.89
2018-11-13T08:00:01.559Z,91.69
2018-11-13T08:01:01.197Z,91.65
2018-11-13T08:02:01.243Z,91.63
2018-11-13T08:03:01.184Z,91.66
2018-11-13T08:04:01.246Z,92.01
2018-11-13T08:05:01.539Z,91.86
2018-11-13T08:06:01.432Z,92.15
2018-11-13T08:07:01.275Z,92.16
2018-11-13T08:08:01.273Z,92.29
2018-11-13T08:09:01.326Z,92.29
2018-11-13T08:10:01.159Z,92.68
2018-11-13T08:11:01.269Z,92.59
2018-11-13T08:12:01.259Z,92.36
2018-11-13T08:13:01.340Z,92.63
2018-11-13T08:14:01.199Z,92.72
2018-11-13T08:15:01.245Z,92.6
2018-11-13T08:16:01.298Z,92.52
2018-11-13T08:17:01.214Z,92.83
2018-11-13T08:18:01.218Z,92.37
2018-11-13T08:19:01.222Z,92.4
2018-11-13T08:20:01.198Z,92.03
2018-11-13T08:21:01.235Z,92.21
2018-11-13T08:22:01.247Z,92.1
2018-11-13T08:23:01.259Z,92.21
2018-11-13T08:24:01.148Z,92.41
2018-11-13T08:25:01.298Z,92.51
2018-11-13T08:26:01.169Z,92.58
2018-11-13T08:27:01.194Z,92.04
2018-11-13T08:28:01.221Z,92.1
2018-11-13T08:29:01.339Z,91.87
2018-11-13T08:30:01.156Z,91.91
2018-11-13T08:31:01.172Z,92.13
2018-11-13T08:32:01.213Z,92.01
2018-11-13T08:33:01.188Z,92
2018-11-13T08:34:01.583Z,91.54
2018-11-13T08:35:01.285Z,91.6
2018-11-13T08:36:01.140Z,91.77
2018-11-13T08:37:01.205Z,91.61
2018-11-13T08:38:01.342Z,91.71
2018-11-13T08:39:01.230Z,91.65
2018-11-13T08:40:01.163Z,91.85
2018-11-13T08:41:01.157Z,91.61
2018-11-13T08:42:01.235Z,91.66
2018-11-13T08:43:01.298Z,91.44
2018-11-13T08:44:01.719Z,91.73
2018-11-13T08:45:01.158Z,91.65
2018-11-13T08:46:01.108Z,91.6
2018-11-13T08:47:01.163Z,91.49
2018-11-13T08:48:01.978Z,91.38
2018-11-13T08:49:01.267Z,91.45
2018-11-13T08:50:01.156Z,91.5
2018-11-13T08:51:01.224Z,91.13
2018-11-13T08:52:01.506Z,91.47
2018-11-13T08:53:01.182Z,91.87
2018-11-13T08:54:01.154Z,91.67
2018-11-13T08:55:01.550Z,91.8
2018-11-13T08:56:01.404Z,91.74
2018-11-13T08:57:01.120Z,91.89
2018-11-13T08:58:01.120Z,91.97
2018-11-13T08:59:01.448Z,91.87
2018-11-13T09:00:01.125Z,91.86
2018-11-13T09:01:01.205Z,91.56
2018-11-13T09:02:01.276Z,91.68
2018-11-13T09:03:01.244Z,91.73
2018-11-13T09:04:01.388Z,91.98
2018-11-13T09:05:01.301Z,91.97
2018-11-13T09:06:01.677Z,91.88
2018-11-13T09:07:01.356Z,91.76
2018-11-13T09:08:01.170Z,92.01
2018-11-13T09:09:01.251Z,91.79
2018-11-13T09:10:01.109Z,92.03
2018-11-13T09:11:01.332Z,92.08
2018-11-13T09:12:01.334Z,91.63
2018-11-13T09:13:01.388Z,91.66
2018-11-13T09:14:01.106Z,91.74
2018-11-13T09:15:01.096Z,91.55
2018-11-13T09:16:01.375Z,91.49
2018-11-13T09:17:01.362Z,91.63
2018-11-13T09:18:01.414Z,91.83
2018-11-13T09:19:01.160Z,91.32
2018-11-13T09:20:01.442Z,91.59
2018-11-13T09:21:01.450Z,91.47
2018-11-13T09:22:01.312Z,91.39
2018-11-13T09:23:01.197Z,91.58
2018-11-13T09:24:01.125Z,91.69
2018-11-13T09:25:01.069Z,91.83
2018-11-13T09:26:01.132Z,91.7
2018-11-13T09:27:01.093Z,91.79
2018-11-13T09:28:01.155Z,91.63
2018-11-13T09:29:01.092Z,91.85
2018-11-13T09:30:01.154Z,91.88
2018-11-13T09:31:01.271Z,91.8
2018-11-13T09:32:01.164Z,91.67
2018-11-13T09:33:01.405Z,91.93
2018-11-13T09:34:01.239Z,91.47
2018-11-13T09:35:01.318Z,91.43
2018-11-13T09:36:01.217Z,91.72
2018-11-13T09:37:01.403Z,91.77
2018-11-13T09:38:01.149Z,91.96
2018-11-13T09:39:01.109Z,91.9
2018-11-13T09:40:01.355Z,91.67
2018-11-13T09:41:01.143Z,91.76
2018-11-13T09:42:01.334Z,91.54
2018-11-13T09:43:01.166Z,91.37
2018-11-13T09:44:01.357Z,91.52
2018-11-13T09:45:01.217Z,91.62
2018-11-13T09:46:01.499Z,91.16
2018-11-13T09:47:01.069Z,91.37
2018-11-13T09:48:01.105Z,91.45
2018-11-13T09:49:01.105Z,91.28
2018-11-13T09:50:01.152Z,91.46
2018-11-13T09:51:01.139Z,91.25
2018-11-13T09:52:01.066Z,91.45
2018-11-13T09:53:01.062Z,91.38
2018-11-13T09:54:01.061Z,91.62
2018-11-13T09:55:01.098Z,91.31
2018-11-13T09:56:01.118Z,91.58
2018-11-13T09:57:01.219Z,91.44
2018-11-13T09:58:01.047Z,91.17
2018-11-13T09:59:01.188Z,91.52
2018-11-13T10:00:01.123Z,91.3
2018-11-13T10:01:01.424Z,91.64
2018-11-13T10:02:01.558Z,91.57
2018-11-13T10:03:02.017Z,91.14
2018-11-13T10:04:01.572Z,91.2
2018-11-13T10:05:01.772Z,90.99
2018-11-13T10:06:01.108Z,91.01
2018-11-13T10:07:01.153Z,91.21
2018-11-13T10:08:01.344Z,91.22
2018-11-13T10:09:01.064Z,91.12
2018-11-13T10:10:01.100Z,91.28
2018-11-13T10:11:01.230Z,91.03
2018-11-13T10:12:01.095Z,90.99
2018-11-13T10:13:01.373Z,90.97
2018-11-13T10:14:01.456Z,91.19
2018-11-13T10:15:01.182Z,91.11
2018-11-13T10:16:01.065Z,91.1
2018-11-13T10:17:01.029Z,90.97
2018-11-13T10:18:01.180Z,91.31
2018-11-13T10:19:01.238Z,90.66
2018-11-13T10:20:01.014Z,90.94
2018-11-13T10:21:01.054Z,90.96
2018-11-13T10:22:01.128Z,91.01
2018-11-13T10:23:01.317Z,90.98
2018-11-13T10:24:01.142Z,91.09
2018-11-13T10:25:01.159Z,91.06
2018-11-13T10:26:01.018Z,90.8
2018-11-13T10:27:01.505Z,91.01
2018-11-13T10:28:01.590Z,91.35
2018-11-13T10:29:01.110Z,90.67
2018-11-13T10:30:01.310Z,90.55
2018-11-13T10:31:01.090Z,90.87
2018-11-13T10:32:01.011Z,90.96
2018-11-13T10:33:01.288Z,90.34
2018-11-13T10:34:01.432Z,90.56
2018-11-13T10:35:01.125Z,90.5
2018-11-13T10:36:01.101Z,90.48
2018-11-13T10:37:01.825Z,90.25
2018-11-13T10:38:01.142Z,89.75
2018-11-13T10:39:01.337Z,89.84
2018-11-13T10:40:01.375Z,89.58
2018-11-13T10:41:01.095Z,88.68
2018-11-13T10:42:01.019Z,88.94
2018-11-13T10:43:01.074Z,88
2018-11-13T10:44:01.043Z,88.67
2018-11-13T10:45:01.000Z,88.75
2018-11-13T10:46:01.036Z,88.53
2018-11-13T10:47:01.077Z,89
2018-11-13T10:48:01.049Z,89.13
2018-11-13T10:49:01.138Z,89.18
2018-11-13T10:50:01.181Z,88.63
2018-11-13T10:51:01.106Z,88.28
2018-11-13T10:52:01.153Z,88.31
2018-11-13T10:53:01.018Z,88.6
2018-11-13T10:54:01.011Z,88.58
2018-11-13T10:55:01.097Z,88.44
2018-11-13T10:56:01.020Z,88.75
2018-11-13T10:57:01.549Z,88.45
2018-11-13T10:58:01.107Z,88.14
2018-11-13T10:59:00.945Z,88.27
2018-11-13T11:00:01.099Z,87.94
2018-11-13T11:01:01.265Z,88.38
2018-11-13T11:02:01.275Z,88.15
2018-11-13T11:03:01.096Z,87.92
2018-11-13T11:04:01.190Z,88.24
2018-11-13T11:05:01.101Z,88.7
2018-11-13T11:07:01.307Z,88.63
2018-11-13T11:08:01.008Z,88.13
2018-11-13T11:09:00.954Z,88.15
2018-11-13T11:10:01.428Z,88.14
2018-11-13T11:11:01.240Z,88.25
2018-11-13T11:12:01.011Z,87.94
2018-11-13T11:13:01.206Z,87.81
2018-11-13T11:14:01.556Z,87.47
2018-11-13T11:15:01.037Z,87.26
2018-11-13T11:16:01.237Z,86.55
2018-11-13T11:17:01.047Z,86.98
2018-11-13T11:18:01.145Z,87.53
2018-11-13T11:19:01.137Z,87
2018-11-13T11:20:00.949Z,87.12
2018-11-13T11:21:01.002Z,86.96
2018-11-13T11:22:00.981Z,86.99
2018-11-13T11:23:00.998Z,87.03
2018-11-13T11:24:00.983Z,86.41
2018-11-13T11:25:01.015Z,86.5
2018-11-13T11:26:01.009Z,85.45
2018-11-13T11:27:00.939Z,85.39
2018-11-13T11:28:00.995Z,85.9
2018-11-13T11:29:01.001Z,85.98
2018-11-13T11:30:00.993Z,85.28
2018-11-13T11:31:01.048Z,85.22
2018-11-13T11:32:00.909Z,85.29
2018-11-13T11:33:00.973Z,85.47
2018-11-13T11:34:00.983Z,85.4
2018-11-13T11:35:01.199Z,86.27
2018-11-13T11:36:01.216Z,86.2
2018-11-13T11:37:00.956Z,86.12
2018-11-13T11:38:00.986Z,86.11
2018-11-13T11:39:01.085Z,86.7
2018-11-13T11:40:00.925Z,85.34
2018-11-13T11:41:01.001Z,85.08
2018-11-13T11:42:00.906Z,84.94
2018-11-13T11:43:01.015Z,84.4
2018-11-13T11:44:00.899Z,84.65
2018-11-13T11:45:01.379Z,84.95
2018-11-13T11:47:01.484Z,84.25
2018-11-13T11:48:00.893Z,84.43
2018-11-13T11:49:01.022Z,84.37
2018-11-13T11:50:01.047Z,83.89
2018-11-13T11:51:01.411Z,84.65
2018-11-13T11:52:01.556Z,84.63
2018-11-13T11:53:00.913Z,84.56
2018-11-13T11:54:01.065Z,83.86
2018-11-13T11:55:01.142Z,83.96
2018-11-13T11:56:01.718Z,83.92
2018-11-13T11:57:01.032Z,83.57
2018-11-13T11:58:01.300Z,83.55
2018-11-13T11:59:01.091Z,83.34
2018-11-13T12:00:01.265Z,83.68
2018-11-13T12:01:01.266Z,84.24
2018-11-13T12:02:00.904Z,84.27
2018-11-13T12:03:01.079Z,83.42
2018-11-13T12:04:01.256Z,83.94
2018-11-13T12:05:00.989Z,83.98
2018-11-13T12:06:00.909Z,83.75
2018-11-13T12:07:00.851Z,83.56
2018-11-13T12:08:00.943Z,83.69
2018-11-13T12:09:00.952Z,83.25
2018-11-13T12:10:01.234Z,83.97
2018-11-13T12:11:00.861Z,83.84
2018-11-13T12:12:01.043Z,83.78
2018-11-13T12:13:00.970Z,83.2
2018-11-13T12:14:01.251Z,83.79
2018-11-13T12:15:00.957Z,83.99
2018-11-13T12:16:00.929Z,83.76
2018-11-13T12:17:01.074Z,83.85
2018-11-13T12:18:00.849Z,82.79
2018-11-13T12:19:01.168Z,83.42
2018-11-13T12:20:00.957Z,83.9
2018-11-13T12:21:00.980Z,83.43
2018-11-13T12:22:01.078Z,82.96
2018-11-13T12:23:00.878Z,82.9
2018-11-13T12:24:01.021Z,82.76
2018-11-13T12:25:00.934Z,82.58
2018-11-13T12:26:01.048Z,83.11
2018-11-13T12:27:00.889Z,83.43
2018-11-13T12:28:01.153Z,83.57
2018-11-13T12:29:00.955Z,83.14
2018-11-13T12:30:00.923Z,83.13
2018-11-13T12:31:01.105Z,83.04
2018-11-13T12:32:01.222Z,82.9
2018-11-13T12:33:01.190Z,83.01
2018-11-13T12:34:01.103Z,82.44
2018-11-13T12:36:00.987Z,83.18
2018-11-13T12:37:00.997Z,82.96
2018-11-13T12:38:01.127Z,83.35
2018-11-13T12:39:00.950Z,82.61
2018-11-13T12:40:00.900Z,82.38
2018-11-13T12:42:01.057Z,81.81
2018-11-13T12:43:00.899Z,81.47
2018-11-13T12:44:00.942Z,81.68
2018-11-13T12:45:00.991Z,82.13
2018-11-13T12:46:01.236Z,81.25
2018-11-13T12:47:00.962Z,82.12
2018-11-13T12:48:00.951Z,81.93
2018-11-13T12:49:01.332Z,81.2
2018-11-13T12:50:01.369Z,80.84
2018-11-13T12:51:01.153Z,81.14
2018-11-13T12:52:01.119Z,81.55
2018-11-13T12:53:00.794Z,81.9
2018-11-13T12:54:00.936Z,81.62
2018-11-13T12:55:00.886Z,81.24
2018-11-13T12:56:00.901Z,81.27
2018-11-13T12:57:00.861Z,80.29
2018-11-13T12:58:00.829Z,79.42
2018-11-13T12:59:00.808Z,79.69